sensor_id;sensor_type;location;lat;lon;timestamp;pressure;altitude;pressure_sealevel;temperature;humidity
76484;BME280;65318;-33.924;18.406;2023-07-24T00:07:58;100201.53;;;9.34;100.00
76484;BME280;65318;-33.924;18.406;2023-07-24T00:10:27;100198.33;;;11.85;88.44
76484;BME280;65318;-33.924;18.406;2023-07-24T00:12:49;100193.30;;;13.74;75.94
76484;BME280;65318;-33.924;18.406;2023-07-24T00:15:14;100192.10;;;14.83;70.08
76484;BME280;65318;-33.924;18.406;2023-07-24T00:17:40;100194.00;;;15.53;65.68
76484;BME280;65318;-33.924;18.406;2023-07-24T00:20:07;100194.17;;;16.03;63.32
76484;BME280;65318;-33.924;18.406;2023-07-24T00:22:31;100199.16;;;16.38;61.37
76484;BME280;65318;-33.924;18.406;2023-07-24T00:24:57;100200.42;;;16.10;60.11
76484;BME280;65318;-33.924;18.406;2023-07-24T00:27:22;100201.44;;;16.46;59.26
76484;BME280;65318;-33.924;18.406;2023-07-24T00:29:48;100194.91;;;16.73;58.29
76484;BME280;65318;-33.924;18.406;2023-07-24T00:32:15;100194.19;;;16.66;58.17
76484;BME280;65318;-33.924;18.406;2023-07-24T00:34:39;100196.74;;;16.99;57.02
76484;BME280;65318;-33.924;18.406;2023-07-24T00:37:05;100193.73;;;17.18;56.90
76484;BME280;65318;-33.924;18.406;2023-07-24T00:39:30;100191.11;;;17.27;56.03
76484;BME280;65318;-33.924;18.406;2023-07-24T00:41:56;100187.78;;;16.53;57.58
76484;BME280;65318;-33.924;18.406;2023-07-24T00:44:22;100184.92;;;16.57;55.97
76484;BME280;65318;-33.924;18.406;2023-07-24T00:46:47;100183.44;;;16.42;55.97
76484;BME280;65318;-33.924;18.406;2023-07-24T00:49:13;100181.59;;;16.87;55.03
76484;BME280;65318;-33.924;18.406;2023-07-24T00:51:38;100180.99;;;16.64;55.22
76484;BME280;65318;-33.924;18.406;2023-07-24T00:54:06;100186.10;;;16.86;54.62
76484;BME280;65318;-33.924;18.406;2023-07-24T00:56:30;100191.75;;;16.87;54.98
76484;BME280;65318;-33.924;18.406;2023-07-24T00:58:55;100192.28;;;16.07;56.29
76484;BME280;65318;-33.924;18.406;2023-07-24T01:01:21;100188.03;;;16.61;55.03
76484;BME280;65318;-33.924;18.406;2023-07-24T01:03:46;100186.73;;;16.89;54.43
76484;BME280;65318;-33.924;18.406;2023-07-24T01:06:11;100184.36;;;16.70;52.93
76484;BME280;65318;-33.924;18.406;2023-07-24T01:08:38;100185.03;;;16.74;52.86
76484;BME280;65318;-33.924;18.406;2023-07-24T01:11:06;100190.33;;;16.24;53.79
76484;BME280;65318;-33.924;18.406;2023-07-24T01:13:31;100187.16;;;16.71;52.83
76484;BME280;65318;-33.924;18.406;2023-07-24T01:15:56;100187.92;;;16.44;53.25
76484;BME280;65318;-33.924;18.406;2023-07-24T01:18:21;100183.22;;;16.50;53.10
76484;BME280;65318;-33.924;18.406;2023-07-24T01:20:49;100187.82;;;15.90;54.55
76484;BME280;65318;-33.924;18.406;2023-07-24T01:23:23;100180.78;;;17.04;52.48
76484;BME280;65318;-33.924;18.406;2023-07-24T01:25:42;100175.00;;;16.79;52.89
76484;BME280;65318;-33.924;18.406;2023-07-24T01:28:06;100175.65;;;16.07;53.79
76484;BME280;65318;-33.924;18.406;2023-07-24T01:30:27;100176.31;;;16.63;52.69
76484;BME280;65318;-33.924;18.406;2023-07-24T01:32:53;100177.64;;;16.54;52.78
76484;BME280;65318;-33.924;18.406;2023-07-24T01:35:18;100175.23;;;16.10;53.60
76484;BME280;65318;-33.924;18.406;2023-07-24T01:37:45;100170.11;;;15.79;53.75
76484;BME280;65318;-33.924;18.406;2023-07-24T01:40:11;100167.00;;;16.49;52.54
76484;BME280;65318;-33.924;18.406;2023-07-24T01:42:35;100167.34;;;16.28;52.73
76484;BME280;65318;-33.924;18.406;2023-07-24T01:45:03;100169.75;;;16.48;51.84
76484;BME280;65318;-33.924;18.406;2023-07-24T01:47:26;100167.70;;;16.41;52.90
76484;BME280;65318;-33.924;18.406;2023-07-24T01:49:52;100163.73;;;16.42;52.24
76484;BME280;65318;-33.924;18.406;2023-07-24T01:52:17;100159.67;;;16.64;52.21
76484;BME280;65318;-33.924;18.406;2023-07-24T01:54:43;100156.47;;;16.54;52.36
76484;BME280;65318;-33.924;18.406;2023-07-24T01:57:09;100150.50;;;16.73;51.88
76484;BME280;65318;-33.924;18.406;2023-07-24T01:59:34;100148.77;;;15.86;52.76
76484;BME280;65318;-33.924;18.406;2023-07-24T02:02:00;100147.91;;;15.99;52.73
76484;BME280;65318;-33.924;18.406;2023-07-24T02:04:25;100146.01;;;16.39;51.66
76484;BME280;65318;-33.924;18.406;2023-07-24T02:06:51;100146.16;;;16.30;52.52
76484;BME280;65318;-33.924;18.406;2023-07-24T02:09:18;100146.80;;;16.13;52.27
76484;BME280;65318;-33.924;18.406;2023-07-24T02:11:42;100150.91;;;15.69;52.90
76484;BME280;65318;-33.924;18.406;2023-07-24T02:14:07;100146.60;;;16.68;51.94
76484;BME280;65318;-33.924;18.406;2023-07-24T02:16:33;100142.18;;;16.43;51.53
76484;BME280;65318;-33.924;18.406;2023-07-24T02:18:58;100135.86;;;15.93;52.36
76484;BME280;65318;-33.924;18.406;2023-07-24T02:21:24;100133.61;;;16.63;51.94
76484;BME280;65318;-33.924;18.406;2023-07-24T02:23:49;100133.14;;;15.54;52.89
76484;BME280;65318;-33.924;18.406;2023-07-24T02:26:15;100125.93;;;16.68;51.30
76484;BME280;65318;-33.924;18.406;2023-07-24T02:28:41;100122.43;;;16.22;51.41
76484;BME280;65318;-33.924;18.406;2023-07-24T02:31:06;100119.88;;;16.18;51.45
76484;BME280;65318;-33.924;18.406;2023-07-24T02:33:32;100124.80;;;16.04;51.80
76484;BME280;65318;-33.924;18.406;2023-07-24T02:35:57;100124.22;;;16.11;51.82
76484;BME280;65318;-33.924;18.406;2023-07-24T02:38:23;100127.28;;;16.23;51.10
76484;BME280;65318;-33.924;18.406;2023-07-24T02:40:48;100131.15;;;16.69;50.56
76484;BME280;65318;-33.924;18.406;2023-07-24T02:43:14;100135.20;;;16.31;51.82
76484;BME280;65318;-33.924;18.406;2023-07-24T02:45:40;100131.23;;;16.08;51.30
76484;BME280;65318;-33.924;18.406;2023-07-24T02:48:05;100132.41;;;16.44;51.55
76484;BME280;65318;-33.924;18.406;2023-07-24T02:50:32;100129.93;;;16.17;51.41
76484;BME280;65318;-33.924;18.406;2023-07-24T02:52:56;100129.72;;;15.83;51.37
76484;BME280;65318;-33.924;18.406;2023-07-24T02:55:21;100134.13;;;15.45;52.73
76484;BME280;65318;-33.924;18.406;2023-07-24T02:57:47;100131.13;;;16.44;50.97
76484;BME280;65318;-33.924;18.406;2023-07-24T03:00:13;100130.97;;;16.00;51.23
76484;BME280;65318;-33.924;18.406;2023-07-24T03:05:04;100134.34;;;16.56;50.60
76484;BME280;65318;-33.924;18.406;2023-07-24T03:07:29;100137.76;;;16.31;49.99
76484;BME280;65318;-33.924;18.406;2023-07-24T03:09:55;100143.84;;;16.00;50.16
76484;BME280;65318;-33.924;18.406;2023-07-24T03:12:21;100148.65;;;15.92;51.09
76484;BME280;65318;-33.924;18.406;2023-07-24T03:14:47;100149.49;;;15.72;51.57
76484;BME280;65318;-33.924;18.406;2023-07-24T03:17:12;100147.06;;;15.35;52.19
76484;BME280;65318;-33.924;18.406;2023-07-24T03:19:38;100149.43;;;16.08;50.82
76484;BME280;65318;-33.924;18.406;2023-07-24T03:22:03;100148.74;;;15.84;51.58
76484;BME280;65318;-33.924;18.406;2023-07-24T03:24:28;100142.77;;;15.58;52.20
76484;BME280;65318;-33.924;18.406;2023-07-24T03:26:54;100144.89;;;15.47;52.32
76484;BME280;65318;-33.924;18.406;2023-07-24T03:29:20;100149.47;;;15.72;51.65
76484;BME280;65318;-33.924;18.406;2023-07-24T03:31:45;100153.08;;;14.79;52.73
76484;BME280;65318;-33.924;18.406;2023-07-24T03:34:11;100158.56;;;15.68;51.81
76484;BME280;65318;-33.924;18.406;2023-07-24T03:36:37;100159.02;;;16.37;50.17
76484;BME280;65318;-33.924;18.406;2023-07-24T03:39:02;100162.93;;;15.27;52.28
76484;BME280;65318;-33.924;18.406;2023-07-24T03:41:28;100166.69;;;15.01;52.28
76484;BME280;65318;-33.924;18.406;2023-07-24T03:43:53;100163.38;;;16.05;50.62
76484;BME280;65318;-33.924;18.406;2023-07-24T03:46:19;100159.85;;;15.53;50.84
76484;BME280;65318;-33.924;18.406;2023-07-24T03:48:44;100163.06;;;15.30;51.51
76484;BME280;65318;-33.924;18.406;2023-07-24T03:51:10;100163.25;;;15.32;52.76
76484;BME280;65318;-33.924;18.406;2023-07-24T03:53:36;100159.90;;;15.40;51.79
76484;BME280;65318;-33.924;18.406;2023-07-24T03:56:01;100161.47;;;15.32;52.92
76484;BME280;65318;-33.924;18.406;2023-07-24T03:58:27;100159.88;;;14.65;53.63
76484;BME280;65318;-33.924;18.406;2023-07-24T04:00:52;100165.14;;;14.66;53.37
76484;BME280;65318;-33.924;18.406;2023-07-24T04:03:18;100168.30;;;15.48;52.37
76484;BME280;65318;-33.924;18.406;2023-07-24T04:05:43;100169.99;;;14.62;53.18
76484;BME280;65318;-33.924;18.406;2023-07-24T04:08:09;100177.61;;;14.10;53.87
76484;BME280;65318;-33.924;18.406;2023-07-24T04:10:35;100180.22;;;14.72;53.12
76484;BME280;65318;-33.924;18.406;2023-07-24T04:13:00;100178.47;;;14.99;52.36
76484;BME280;65318;-33.924;18.406;2023-07-24T04:15:26;100180.28;;;15.04;53.01
76484;BME280;65318;-33.924;18.406;2023-07-24T04:17:51;100184.21;;;14.19;54.29
76484;BME280;65318;-33.924;18.406;2023-07-24T04:20:17;100183.74;;;14.40;53.93
76484;BME280;65318;-33.924;18.406;2023-07-24T04:22:43;100190.49;;;14.42;54.46
76484;BME280;65318;-33.924;18.406;2023-07-24T04:25:08;100197.69;;;13.96;54.86
76484;BME280;65318;-33.924;18.406;2023-07-24T04:27:33;100203.28;;;14.75;53.41
76484;BME280;65318;-33.924;18.406;2023-07-24T04:29:59;100216.24;;;14.56;54.39
76484;BME280;65318;-33.924;18.406;2023-07-24T04:32:26;100214.32;;;13.66;55.50
76484;BME280;65318;-33.924;18.406;2023-07-24T04:34:50;100206.04;;;14.49;54.81
76484;BME280;65318;-33.924;18.406;2023-07-24T04:37:16;100200.81;;;15.21;53.27
76484;BME280;65318;-33.924;18.406;2023-07-24T04:39:41;100194.03;;;14.29;53.93
76484;BME280;65318;-33.924;18.406;2023-07-24T04:42:07;100191.22;;;14.43;54.49
76484;BME280;65318;-33.924;18.406;2023-07-24T04:44:33;100190.00;;;14.34;54.91
76484;BME280;65318;-33.924;18.406;2023-07-24T04:46:58;100186.88;;;13.87;54.62
76484;BME280;65318;-33.924;18.406;2023-07-24T04:49:24;100187.60;;;14.27;54.77
76484;BME280;65318;-33.924;18.406;2023-07-24T04:51:49;100180.96;;;14.66;52.64
76484;BME280;65318;-33.924;18.406;2023-07-24T04:54:15;100183.65;;;14.01;54.42
76484;BME280;65318;-33.924;18.406;2023-07-24T04:56:40;100182.23;;;14.05;54.34
76484;BME280;65318;-33.924;18.406;2023-07-24T04:59:06;100182.12;;;14.35;53.73
76484;BME280;65318;-33.924;18.406;2023-07-24T05:01:31;100179.54;;;14.03;54.33
76484;BME280;65318;-33.924;18.406;2023-07-24T05:03:57;100182.97;;;14.06;53.69
76484;BME280;65318;-33.924;18.406;2023-07-24T05:06:22;100185.93;;;13.94;53.72
76484;BME280;65318;-33.924;18.406;2023-07-24T05:08:48;100185.37;;;13.87;53.94
76484;BME280;65318;-33.924;18.406;2023-07-24T05:11:14;100187.66;;;14.28;53.53
76484;BME280;65318;-33.924;18.406;2023-07-24T05:13:39;100185.57;;;14.29;53.44
76484;BME280;65318;-33.924;18.406;2023-07-24T05:16:05;100188.93;;;15.32;51.08
76484;BME280;65318;-33.924;18.406;2023-07-24T05:18:30;100199.46;;;14.92;51.65
76484;BME280;65318;-33.924;18.406;2023-07-24T05:20:55;100205.73;;;13.84;53.29
76484;BME280;65318;-33.924;18.406;2023-07-24T05:23:21;100199.05;;;14.09;53.37
76484;BME280;65318;-33.924;18.406;2023-07-24T05:25:47;100202.75;;;14.07;52.98
76484;BME280;65318;-33.924;18.406;2023-07-24T05:28:12;100199.58;;;14.07;52.39
76484;BME280;65318;-33.924;18.406;2023-07-24T05:30:38;100197.66;;;14.55;51.83
76484;BME280;65318;-33.924;18.406;2023-07-24T05:33:04;100200.44;;;14.28;52.05
76484;BME280;65318;-33.924;18.406;2023-07-24T05:35:29;100202.93;;;13.87;52.56
76484;BME280;65318;-33.924;18.406;2023-07-24T05:37:55;100202.18;;;13.78;52.41
76484;BME280;65318;-33.924;18.406;2023-07-24T05:40:20;100209.30;;;13.69;52.52
76484;BME280;65318;-33.924;18.406;2023-07-24T05:42:46;100216.77;;;14.18;51.79
76484;BME280;65318;-33.924;18.406;2023-07-24T05:45:11;100226.10;;;13.99;51.97
76484;BME280;65318;-33.924;18.406;2023-07-24T05:47:37;100231.28;;;13.74;52.14
76484;BME280;65318;-33.924;18.406;2023-07-24T05:50:02;100234.05;;;13.92;52.10
76484;BME280;65318;-33.924;18.406;2023-07-24T05:52:28;100234.74;;;14.17;51.05
76484;BME280;65318;-33.924;18.406;2023-07-24T05:54:53;100241.33;;;13.99;51.85
76484;BME280;65318;-33.924;18.406;2023-07-24T05:57:19;100245.68;;;14.29;51.15
76484;BME280;65318;-33.924;18.406;2023-07-24T05:59:45;100250.03;;;14.37;51.12
76484;BME280;65318;-33.924;18.406;2023-07-24T06:02:10;100253.97;;;14.16;51.47
76484;BME280;65318;-33.924;18.406;2023-07-24T06:04:37;100255.65;;;13.77;51.78
76484;BME280;65318;-33.924;18.406;2023-07-24T06:07:01;100256.12;;;14.89;49.77
76484;BME280;65318;-33.924;18.406;2023-07-24T06:09:27;100257.03;;;14.55;49.76
76484;BME280;65318;-33.924;18.406;2023-07-24T08:06:16;100353.66;;;9.53;100.00
76484;BME280;65318;-33.924;18.406;2023-07-24T08:08:41;100346.16;;;11.73;87.25
76484;BME280;65318;-33.924;18.406;2023-07-24T08:11:07;100334.46;;;13.49;76.61
76484;BME280;65318;-33.924;18.406;2023-07-24T08:13:33;100328.98;;;15.00;70.01
76484;BME280;65318;-33.924;18.406;2023-07-24T08:15:58;100330.53;;;15.44;66.17
76484;BME280;65318;-33.924;18.406;2023-07-24T08:18:24;100328.75;;;15.58;63.62
76484;BME280;65318;-33.924;18.406;2023-07-24T08:20:49;100330.48;;;16.56;61.52
76484;BME280;65318;-33.924;18.406;2023-07-24T08:23:15;100324.62;;;16.40;60.33
76484;BME280;65318;-33.924;18.406;2023-07-24T08:28:06;100323.45;;;16.43;58.74
76484;BME280;65318;-33.924;18.406;2023-07-24T08:30:32;100325.67;;;16.28;57.99
76484;BME280;65318;-33.924;18.406;2023-07-24T08:32:58;100323.11;;;16.37;57.60
76484;BME280;65318;-33.924;18.406;2023-07-24T08:35:23;100325.59;;;16.43;57.02
76484;BME280;65318;-33.924;18.406;2023-07-24T08:37:49;100330.06;;;16.82;56.49
76484;BME280;65318;-33.924;18.406;2023-07-24T08:40:16;100328.94;;;16.86;56.17
76484;BME280;65318;-33.924;18.406;2023-07-24T08:42:43;100327.54;;;16.61;55.85
76484;BME280;65318;-33.924;18.406;2023-07-24T08:45:11;100329.35;;;16.74;55.38
76484;BME280;65318;-33.924;18.406;2023-07-24T08:47:31;100334.48;;;16.90;55.10
76484;BME280;65318;-33.924;18.406;2023-07-24T08:49:57;100328.56;;;16.48;55.71
76484;BME280;65318;-33.924;18.406;2023-07-24T08:52:23;100328.05;;;17.18;54.83
76484;BME280;65318;-33.924;18.406;2023-07-24T08:54:49;100324.76;;;17.45;54.60
76484;BME280;65318;-33.924;18.406;2023-07-24T08:57:14;100322.66;;;17.02;54.43
76484;BME280;65318;-33.924;18.406;2023-07-24T08:59:39;100318.55;;;16.85;52.59
76484;BME280;65318;-33.924;18.406;2023-07-24T09:02:06;100314.31;;;16.93;52.28
76484;BME280;65318;-33.924;18.406;2023-07-24T09:04:30;100312.18;;;16.78;51.95
76484;BME280;65318;-33.924;18.406;2023-07-24T09:06:57;100305.76;;;16.69;52.03
76484;BME280;65318;-33.924;18.406;2023-07-24T09:09:22;100302.47;;;16.11;52.66
